sensor_id;sensor_type;location;lat;lon;timestamp;P1;durP1;ratioP1;P2;durP2;ratioP2
53036;SDS011;38924;52.134;4.666;2024-01-10T00:01:33;8.60;;;3.70;;
53036;SDS011;38924;52.134;4.666;2024-01-10T00:03:58;5.22;;;2.75;;
53036;SDS011;38924;52.134;4.666;2024-01-10T00:06:24;6.00;;;3.42;;
53036;SDS011;38924;52.134;4.666;2024-01-10T00:08:50;6.38;;;3.50;;
53036;SDS011;38924;52.134;4.666;2024-01-10T00:11:15;6.90;;;3.22;;
53036;SDS011;38924;52.134;4.666;2024-01-10T00:13:41;11.90;;;3.20;;
53036;SDS011;38924;52.134;4.666;2024-01-10T00:16:07;5.82;;;2.97;;
53036;SDS011;38924;52.134;4.666;2024-01-10T00:18:33;7.55;;;3.90;;
53036;SDS011;38924;52.134;4.666;2024-01-10T00:20:59;5.82;;;3.50;;
53036;SDS011;38924;52.134;4.666;2024-01-10T00:23:24;6.53;;;3.35;;
53036;SDS011;38924;52.134;4.666;2024-01-10T00:25:50;7.97;;;3.90;;
53036;SDS011;38924;52.134;4.666;2024-01-10T00:28:16;6.53;;;3.15;;
53036;SDS011;38924;52.134;4.666;2024-01-10T00:30:44;8.75;;;3.50;;
53036;SDS011;38924;52.134;4.666;2024-01-10T00:33:10;7.68;;;3.50;;
53036;SDS011;38924;52.134;4.666;2024-01-10T00:35:36;7.00;;;3.40;;
53036;SDS011;38924;52.134;4.666;2024-01-10T00:38:02;7.18;;;3.28;;
53036;SDS011;38924;52.134;4.666;2024-01-10T00:40:28;5.55;;;3.35;;
53036;SDS011;38924;52.134;4.666;2024-01-10T00:42:54;7.07;;;3.10;;
53036;SDS011;38924;52.134;4.666;2024-01-10T00:45:22;6.07;;;3.35;;
53036;SDS011;38924;52.134;4.666;2024-01-10T00:47:48;7.97;;;3.10;;
53036;SDS011;38924;52.134;4.666;2024-01-10T00:50:14;5.68;;;2.85;;
53036;SDS011;38924;52.134;4.666;2024-01-10T00:52:39;5.53;;;2.97;;
53036;SDS011;38924;52.134;4.666;2024-01-10T00:55:05;3.58;;;2.70;;
53036;SDS011;38924;52.134;4.666;2024-01-10T00:57:31;6.97;;;4.55;;
53036;SDS011;38924;52.134;4.666;2024-01-10T00:59:56;8.85;;;3.60;;
53036;SDS011;38924;52.134;4.666;2024-01-10T01:02:22;5.38;;;3.15;;
53036;SDS011;38924;52.134;4.666;2024-01-10T01:04:48;5.25;;;2.97;;
53036;SDS011;38924;52.134;4.666;2024-01-10T01:07:13;8.07;;;3.33;;
53036;SDS011;38924;52.134;4.666;2024-01-10T01:09:39;6.03;;;3.53;;
53036;SDS011;38924;52.134;4.666;2024-01-10T01:12:05;5.85;;;3.60;;
53036;SDS011;38924;52.134;4.666;2024-01-10T01:14:30;5.50;;;2.80;;
53036;SDS011;38924;52.134;4.666;2024-01-10T01:16:56;7.40;;;3.45;;
53036;SDS011;38924;52.134;4.666;2024-01-10T01:19:22;6.80;;;3.88;;
53036;SDS011;38924;52.134;4.666;2024-01-10T01:21:47;7.97;;;3.60;;
53036;SDS011;38924;52.134;4.666;2024-01-10T01:24:13;6.07;;;3.25;;
53036;SDS011;38924;52.134;4.666;2024-01-10T01:26:39;6.50;;;3.92;;
53036;SDS011;38924;52.134;4.666;2024-01-10T01:29:04;6.43;;;3.15;;
53036;SDS011;38924;52.134;4.666;2024-01-10T01:31:30;6.28;;;2.90;;
53036;SDS011;38924;52.134;4.666;2024-01-10T01:33:59;5.65;;;3.50;;
53036;SDS011;38924;52.134;4.666;2024-01-10T01:36:25;5.45;;;3.33;;
53036;SDS011;38924;52.134;4.666;2024-01-10T01:38:51;6.78;;;3.30;;
53036;SDS011;38924;52.134;4.666;2024-01-10T01:41:16;9.23;;;3.35;;
53036;SDS011;38924;52.134;4.666;2024-01-10T01:43:43;6.65;;;3.70;;
53036;SDS011;38924;52.134;4.666;2024-01-10T01:46:08;6.45;;;3.45;;
53036;SDS011;38924;52.134;4.666;2024-01-10T01:48:34;7.50;;;4.22;;
53036;SDS011;38924;52.134;4.666;2024-01-10T01:51:02;6.07;;;3.47;;
53036;SDS011;38924;52.134;4.666;2024-01-10T01:53:28;8.45;;;3.75;;
53036;SDS011;38924;52.134;4.666;2024-01-10T01:55:57;6.18;;;3.45;;
53036;SDS011;38924;52.134;4.666;2024-01-10T01:58:24;10.63;;;5.22;;
53036;SDS011;38924;52.134;4.666;2024-01-10T02:00:50;9.88;;;4.80;;
53036;SDS011;38924;52.134;4.666;2024-01-10T02:03:15;7.63;;;4.00;;
53036;SDS011;38924;52.134;4.666;2024-01-10T02:05:41;9.35;;;4.47;;
53036;SDS011;38924;52.134;4.666;2024-01-10T02:08:10;7.75;;;4.38;;
53036;SDS011;38924;52.134;4.666;2024-01-10T02:10:38;9.02;;;4.35;;
53036;SDS011;38924;52.134;4.666;2024-01-10T02:13:04;14.50;;;4.80;;
53036;SDS011;38924;52.134;4.666;2024-01-10T02:15:30;9.23;;;5.28;;
53036;SDS011;38924;52.134;4.666;2024-01-10T02:17:56;10.30;;;4.68;;
53036;SDS011;38924;52.134;4.666;2024-01-10T02:20:21;12.45;;;4.97;;
53036;SDS011;38924;52.134;4.666;2024-01-10T02:22:47;7.10;;;4.28;;
53036;SDS011;38924;52.134;4.666;2024-01-10T02:25:14;9.05;;;4.72;;
53036;SDS011;38924;52.134;4.666;2024-01-10T02:27:40;11.18;;;6.38;;
53036;SDS011;38924;52.134;4.666;2024-01-10T02:30:06;9.02;;;4.65;;
53036;SDS011;38924;52.134;4.666;2024-01-10T02:32:32;7.45;;;4.72;;
53036;SDS011;38924;52.134;4.666;2024-01-10T02:34:58;8.02;;;4.75;;
53036;SDS011;38924;52.134;4.666;2024-01-10T02:37:24;11.00;;;5.40;;
53036;SDS011;38924;52.134;4.666;2024-01-10T02:39:50;8.73;;;5.32;;
53036;SDS011;38924;52.134;4.666;2024-01-10T02:42:21;9.07;;;4.72;;
53036;SDS011;38924;52.134;4.666;2024-01-10T02:44:47;10.35;;;5.80;;
53036;SDS011;38924;52.134;4.666;2024-01-10T02:47:15;8.00;;;4.88;;
53036;SDS011;38924;52.134;4.666;2024-01-10T02:49:41;11.25;;;5.85;;
53036;SDS011;38924;52.134;4.666;2024-01-10T02:52:06;12.27;;;5.93;;
53036;SDS011;38924;52.134;4.666;2024-01-10T02:54:32;10.77;;;5.20;;
53036;SDS011;38924;52.134;4.666;2024-01-10T02:56:57;11.13;;;5.10;;
53036;SDS011;38924;52.134;4.666;2024-01-10T02:59:23;13.23;;;6.10;;
53036;SDS011;38924;52.134;4.666;2024-01-10T03:01:49;10.73;;;5.25;;
53036;SDS011;38924;52.134;4.666;2024-01-10T03:04:14;8.20;;;5.45;;
53036;SDS011;38924;52.134;4.666;2024-01-10T03:06:40;9.02;;;5.43;;
53036;SDS011;38924;52.134;4.666;2024-01-10T03:09:06;9.85;;;5.88;;
53036;SDS011;38924;52.134;4.666;2024-01-10T03:11:34;10.43;;;5.93;;
53036;SDS011;38924;52.134;4.666;2024-01-10T03:14:04;11.65;;;5.85;;
53036;SDS011;38924;52.134;4.666;2024-01-10T03:16:32;9.75;;;5.60;;
53036;SDS011;38924;52.134;4.666;2024-01-10T03:18:58;10.13;;;5.65;;
53036;SDS011;38924;52.134;4.666;2024-01-10T03:21:23;11.18;;;6.60;;
53036;SDS011;38924;52.134;4.666;2024-01-10T03:23:52;10.90;;;6.72;;
53036;SDS011;38924;52.134;4.666;2024-01-10T03:26:18;10.57;;;5.85;;
53036;SDS011;38924;52.134;4.666;2024-01-10T03:28:43;27.58;;;6.32;;
53036;SDS011;38924;52.134;4.666;2024-01-10T03:31:10;9.75;;;5.72;;
53036;SDS011;38924;52.134;4.666;2024-01-10T03:33:36;9.65;;;6.15;;
53036;SDS011;38924;52.134;4.666;2024-01-10T03:36:03;8.85;;;5.47;;
53036;SDS011;38924;52.134;4.666;2024-01-10T03:38:29;10.68;;;6.55;;
53036;SDS011;38924;52.134;4.666;2024-01-10T03:40:54;9.23;;;5.40;;
53036;SDS011;38924;52.134;4.666;2024-01-10T03:43:20;10.43;;;5.85;;
53036;SDS011;38924;52.134;4.666;2024-01-10T03:45:46;8.90;;;5.72;;
53036;SDS011;38924;52.134;4.666;2024-01-10T03:48:11;10.70;;;6.07;;
53036;SDS011;38924;52.134;4.666;2024-01-10T03:50:37;12.07;;;6.13;;
53036;SDS011;38924;52.134;4.666;2024-01-10T03:53:03;14.10;;;5.75;;
53036;SDS011;38924;52.134;4.666;2024-01-10T03:55:28;11.32;;;5.93;;
53036;SDS011;38924;52.134;4.666;2024-01-10T03:57:56;12.95;;;6.45;;
53036;SDS011;38924;52.134;4.666;2024-01-10T04:00:21;13.13;;;5.25;;
53036;SDS011;38924;52.134;4.666;2024-01-10T04:02:47;12.85;;;6.18;;
53036;SDS011;38924;52.134;4.666;2024-01-10T04:05:12;12.18;;;6.30;;
53036;SDS011;38924;52.134;4.666;2024-01-10T04:07:42;12.27;;;5.65;;
53036;SDS011;38924;52.134;4.666;2024-01-10T04:10:09;10.07;;;5.47;;
53036;SDS011;38924;52.134;4.666;2024-01-10T04:12:36;9.63;;;5.20;;
53036;SDS011;38924;52.134;4.666;2024-01-10T04:15:03;10.02;;;5.53;;
53036;SDS011;38924;52.134;4.666;2024-01-10T04:17:29;11.18;;;5.57;;
53036;SDS011;38924;52.134;4.666;2024-01-10T04:19:55;11.23;;;5.53;;
53036;SDS011;38924;52.134;4.666;2024-01-10T04:22:21;10.18;;;5.45;;
53036;SDS011;38924;52.134;4.666;2024-01-10T04:24:46;9.30;;;5.95;;
53036;SDS011;38924;52.134;4.666;2024-01-10T04:27:12;8.68;;;5.13;;
53036;SDS011;38924;52.134;4.666;2024-01-10T04:29:38;8.23;;;4.72;;
53036;SDS011;38924;52.134;4.666;2024-01-10T04:32:03;10.68;;;5.20;;
53036;SDS011;38924;52.134;4.666;2024-01-10T04:34:35;10.05;;;5.70;;
53036;SDS011;38924;52.134;4.666;2024-01-10T04:37:01;10.52;;;5.57;;
53036;SDS011;38924;52.134;4.666;2024-01-10T04:39:27;9.48;;;5.88;;
53036;SDS011;38924;52.134;4.666;2024-01-10T04:41:52;8.52;;;5.20;;
53036;SDS011;38924;52.134;4.666;2024-01-10T04:44:18;13.63;;;5.50;;
53036;SDS011;38924;52.134;4.666;2024-01-10T04:46:44;8.38;;;5.55;;
53036;SDS011;38924;52.134;4.666;2024-01-10T04:49:09;12.10;;;5.35;;
53036;SDS011;38924;52.134;4.666;2024-01-10T04:51:35;8.48;;;5.45;;
53036;SDS011;38924;52.134;4.666;2024-01-10T04:54:01;7.90;;;4.97;;
53036;SDS011;38924;52.134;4.666;2024-01-10T04:56:26;12.90;;;6.03;;
53036;SDS011;38924;52.134;4.666;2024-01-10T04:58:55;13.52;;;6.05;;
53036;SDS011;38924;52.134;4.666;2024-01-10T05:01:20;8.57;;;4.90;;
53036;SDS011;38924;52.134;4.666;2024-01-10T05:03:46;11.20;;;5.72;;
53036;SDS011;38924;52.134;4.666;2024-01-10T05:06:12;11.25;;;5.15;;
53036;SDS011;38924;52.134;4.666;2024-01-10T05:08:37;12.82;;;6.57;;
53036;SDS011;38924;52.134;4.666;2024-01-10T05:11:05;10.63;;;6.22;;
53036;SDS011;38924;52.134;4.666;2024-01-10T05:13:34;12.65;;;6.80;;
53036;SDS011;38924;52.134;4.666;2024-01-10T05:16:00;9.57;;;5.95;;
53036;SDS011;38924;52.134;4.666;2024-01-10T05:18:26;11.73;;;5.40;;
53036;SDS011;38924;52.134;4.666;2024-01-10T05:20:51;15.75;;;8.13;;
53036;SDS011;38924;52.134;4.666;2024-01-10T05:23:17;13.48;;;6.95;;
53036;SDS011;38924;52.134;4.666;2024-01-10T05:25:43;11.93;;;6.88;;
53036;SDS011;38924;52.134;4.666;2024-01-10T05:28:08;10.98;;;6.25;;
53036;SDS011;38924;52.134;4.666;2024-01-10T05:30:34;13.98;;;7.03;;
53036;SDS011;38924;52.134;4.666;2024-01-10T05:33:03;12.65;;;6.38;;
53036;SDS011;38924;52.134;4.666;2024-01-10T05:35:28;11.38;;;6.60;;
53036;SDS011;38924;52.134;4.666;2024-01-10T05:37:54;10.02;;;5.70;;
53036;SDS011;38924;52.134;4.666;2024-01-10T05:40:20;11.85;;;6.03;;
53036;SDS011;38924;52.134;4.666;2024-01-10T05:42:46;11.13;;;5.85;;
53036;SDS011;38924;52.134;4.666;2024-01-10T05:45:11;10.77;;;5.80;;
53036;SDS011;38924;52.134;4.666;2024-01-10T05:47:37;13.73;;;6.70;;
53036;SDS011;38924;52.134;4.666;2024-01-10T05:50:03;9.32;;;5.15;;
53036;SDS011;38924;52.134;4.666;2024-01-10T05:52:31;10.93;;;5.93;;
53036;SDS011;38924;52.134;4.666;2024-01-10T05:54:57;10.90;;;6.35;;
53036;SDS011;38924;52.134;4.666;2024-01-10T05:57:23;12.90;;;5.60;;
53036;SDS011;38924;52.134;4.666;2024-01-10T05:59:48;13.75;;;6.05;;
53036;SDS011;38924;52.134;4.666;2024-01-10T06:02:14;8.68;;;5.55;;
53036;SDS011;38924;52.134;4.666;2024-01-10T06:04:42;11.45;;;6.03;;
53036;SDS011;38924;52.134;4.666;2024-01-10T06:07:07;12.15;;;5.72;;
53036;SDS011;38924;52.134;4.666;2024-01-10T06:09:33;11.98;;;6.10;;
53036;SDS011;38924;52.134;4.666;2024-01-10T06:11:59;9.27;;;5.68;;
53036;SDS011;38924;52.134;4.666;2024-01-10T06:14:24;12.20;;;6.22;;
53036;SDS011;38924;52.134;4.666;2024-01-10T06:16:50;10.88;;;5.63;;
53036;SDS011;38924;52.134;4.666;2024-01-10T06:19:16;11.00;;;6.00;;
53036;SDS011;38924;52.134;4.666;2024-01-10T06:21:41;9.15;;;5.82;;
53036;SDS011;38924;52.134;4.666;2024-01-10T06:24:07;14.88;;;5.82;;
53036;SDS011;38924;52.134;4.666;2024-01-10T06:26:33;11.77;;;4.97;;
53036;SDS011;38924;52.134;4.666;2024-01-10T06:28:59;10.43;;;6.47;;
53036;SDS011;38924;52.134;4.666;2024-01-10T06:31:24;13.15;;;5.40;;
53036;SDS011;38924;52.134;4.666;2024-01-10T06:33:50;13.50;;;6.28;;
53036;SDS011;38924;52.134;4.666;2024-01-10T06:36:16;10.63;;;5.70;;
53036;SDS011;38924;52.134;4.666;2024-01-10T06:38:41;9.50;;;5.60;;
53036;SDS011;38924;52.134;4.666;2024-01-10T06:41:10;10.73;;;5.50;;
53036;SDS011;38924;52.134;4.666;2024-01-10T06:43:36;11.80;;;6.45;;
53036;SDS011;38924;52.134;4.666;2024-01-10T06:46:02;11.23;;;6.25;;
53036;SDS011;38924;52.134;4.666;2024-01-10T06:48:28;11.20;;;5.55;;
53036;SDS011;38924;52.134;4.666;2024-01-10T06:50:54;10.18;;;4.88;;
53036;SDS011;38924;52.134;4.666;2024-01-10T06:53:21;9.18;;;5.35;;
53036;SDS011;38924;52.134;4.666;2024-01-10T06:55:52;11.75;;;5.68;;
53036;SDS011;38924;52.134;4.666;2024-01-10T06:58:20;12.15;;;5.53;;
53036;SDS011;38924;52.134;4.666;2024-01-10T07:00:46;11.02;;;5.90;;
53036;SDS011;38924;52.134;4.666;2024-01-10T07:03:36;10.48;;;5.70;;
53036;SDS011;38924;52.134;4.666;2024-01-10T07:06:02;10.30;;;5.82;;
53036;SDS011;38924;52.134;4.666;2024-01-10T07:08:28;10.20;;;5.78;;
53036;SDS011;38924;52.134;4.666;2024-01-10T07:10:53;9.00;;;5.53;;
53036;SDS011;38924;52.134;4.666;2024-01-10T07:13:21;10.45;;;4.60;;
53036;SDS011;38924;52.134;4.666;2024-01-10T07:15:46;8.82;;;4.97;;
53036;SDS011;38924;52.134;4.666;2024-01-10T07:18:12;13.52;;;5.78;;
53036;SDS011;38924;52.134;4.666;2024-01-10T07:20:38;11.98;;;5.78;;
53036;SDS011;38924;52.134;4.666;2024-01-10T07:23:03;12.38;;;5.65;;
53036;SDS011;38924;52.134;4.666;2024-01-10T07:25:29;10.40;;;5.85;;
53036;SDS011;38924;52.134;4.666;2024-01-10T07:27:55;11.88;;;5.00;;
53036;SDS011;38924;52.134;4.666;2024-01-10T07:30:20;11.88;;;6.35;;
53036;SDS011;38924;52.134;4.666;2024-01-10T07:32:46;14.90;;;5.75;;
53036;SDS011;38924;52.134;4.666;2024-01-10T07:35:14;10.52;;;6.28;;
53036;SDS011;38924;52.134;4.666;2024-01-10T07:37:41;11.43;;;6.07;;
53036;SDS011;38924;52.134;4.666;2024-01-10T07:40:07;12.40;;;6.18;;
53036;SDS011;38924;52.134;4.666;2024-01-10T07:42:34;16.80;;;6.57;;
53036;SDS011;38924;52.134;4.666;2024-01-10T07:45:00;9.18;;;5.97;;
53036;SDS011;38924;52.134;4.666;2024-01-10T07:47:30;10.18;;;6.10;;
53036;SDS011;38924;52.134;4.666;2024-01-10T07:49:57;12.20;;;5.53;;
53036;SDS011;38924;52.134;4.666;2024-01-10T07:52:23;10.27;;;5.57;;
53036;SDS011;38924;52.134;4.666;2024-01-10T07:54:49;17.52;;;7.18;;
53036;SDS011;38924;52.134;4.666;2024-01-10T07:57:14;9.95;;;5.93;;
53036;SDS011;38924;52.134;4.666;2024-01-10T07:59:40;8.20;;;4.95;;
53036;SDS011;38924;52.134;4.666;2024-01-10T08:02:06;14.27;;;6.78;;
53036;SDS011;38924;52.134;4.666;2024-01-10T08:04:32;18.02;;;5.85;;
53036;SDS011;38924;52.134;4.666;2024-01-10T08:06:58;9.00;;;5.28;;
53036;SDS011;38924;52.134;4.666;2024-01-10T08:09:24;13.65;;;5.70;;
53036;SDS011;38924;52.134;4.666;2024-01-10T08:11:50;11.25;;;5.80;;
53036;SDS011;38924;52.134;4.666;2024-01-10T08:14:15;10.13;;;5.30;;
53036;SDS011;38924;52.134;4.666;2024-01-10T08:16:41;9.30;;;4.78;;
53036;SDS011;38924;52.134;4.666;2024-01-10T08:19:07;9.30;;;5.32;;
53036;SDS011;38924;52.134;4.666;2024-01-10T08:21:33;8.43;;;4.45;;
53036;SDS011;38924;52.134;4.666;2024-01-10T08:23:59;7.38;;;4.13;;
53036;SDS011;38924;52.134;4.666;2024-01-10T08:26:28;18.52;;;5.50;;
53036;SDS011;38924;52.134;4.666;2024-01-10T08:28:54;8.23;;;4.53;;
53036;SDS011;38924;52.134;4.666;2024-01-10T08:31:22;8.48;;;4.30;;
53036;SDS011;38924;52.134;4.666;2024-01-10T08:33:52;9.10;;;4.55;;
53036;SDS011;38924;52.134;4.666;2024-01-10T08:36:18;8.43;;;4.72;;
53036;SDS011;38924;52.134;4.666;2024-01-10T08:38:43;11.68;;;4.07;;
53036;SDS011;38924;52.134;4.666;2024-01-10T08:41:09;10.50;;;4.90;;
53036;SDS011;38924;52.134;4.666;2024-01-10T08:43:39;10.07;;;4.95;;
53036;SDS011;38924;52.134;4.666;2024-01-10T08:46:06;8.15;;;3.83;;
53036;SDS011;38924;52.134;4.666;2024-01-10T08:48:32;7.85;;;4.80;;
53036;SDS011;38924;52.134;4.666;2024-01-10T08:50:57;9.30;;;4.30;;
53036;SDS011;38924;52.134;4.666;2024-01-10T08:53:23;5.72;;;3.95;;
53036;SDS011;38924;52.134;4.666;2024-01-10T08:55:48;7.95;;;4.03;;
53036;SDS011;38924;52.134;4.666;2024-01-10T08:58:14;7.30;;;4.13;;
53036;SDS011;38924;52.134;4.666;2024-01-10T09:00:40;7.90;;;3.80;;
53036;SDS011;38924;52.134;4.666;2024-01-10T09:03:05;13.13;;;4.65;;
53036;SDS011;38924;52.134;4.666;2024-01-10T09:05:31;11.02;;;3.95;;
53036;SDS011;38924;52.134;4.666;2024-01-10T09:07:58;6.68;;;4.57;;
53036;SDS011;38924;52.134;4.666;2024-01-10T09:10:23;10.15;;;3.95;;
53036;SDS011;38924;52.134;4.666;2024-01-10T09:12:49;7.95;;;3.95;;
53036;SDS011;38924;52.134;4.666;2024-01-10T09:15:15;7.78;;;4.95;;
53036;SDS011;38924;52.134;4.666;2024-01-10T09:17:41;7.95;;;4.70;;
53036;SDS011;38924;52.134;4.666;2024-01-10T09:20:07;7.32;;;3.95;;
53036;SDS011;38924;52.134;4.666;2024-01-10T09:22:34;7.25;;;4.15;;
53036;SDS011;38924;52.134;4.666;2024-01-10T09:24:59;6.20;;;3.88;;
53036;SDS011;38924;52.134;4.666;2024-01-10T09:27:33;6.97;;;4.40;;
53036;SDS011;38924;52.134;4.666;2024-01-10T09:29:59;6.03;;;3.83;;
53036;SDS011;38924;52.134;4.666;2024-01-10T09:32:29;6.80;;;4.18;;
53036;SDS011;38924;52.134;4.666;2024-01-10T09:34:55;6.90;;;3.30;;
53036;SDS011;38924;52.134;4.666;2024-01-10T09:37:21;9.40;;;4.10;;
53036;SDS011;38924;52.134;4.666;2024-01-10T09:39:48;8.25;;;4.70;;
53036;SDS011;38924;52.134;4.666;2024-01-10T09:42:13;6.60;;;3.70;;
53036;SDS011;38924;52.134;4.666;2024-01-10T09:44:40;6.95;;;3.85;;
53036;SDS011;38924;52.134;4.666;2024-01-10T09:47:06;6.97;;;4.10;;
53036;SDS011;38924;52.134;4.666;2024-01-10T09:49:31;7.10;;;3.92;;
53036;SDS011;38924;52.134;4.666;2024-01-10T09:51:59;7.65;;;4.18;;
53036;SDS011;38924;52.134;4.666;2024-01-10T09:54:26;8.43;;;3.70;;
53036;SDS011;38924;52.134;4.666;2024-01-10T09:56:53;7.38;;;3.97;;
53036;SDS011;38924;52.134;4.666;2024-01-10T09:59:18;6.60;;;4.03;;
53036;SDS011;38924;52.134;4.666;2024-01-10T10:01:44;7.18;;;3.72;;
53036;SDS011;38924;52.134;4.666;2024-01-10T10:04:11;9.60;;;4.00;;
53036;SDS011;38924;52.134;4.666;2024-01-10T10:06:37;6.32;;;3.78;;
53036;SDS011;38924;52.134;4.666;2024-01-10T10:09:03;8.30;;;4.57;;
53036;SDS011;38924;52.134;4.666;2024-01-10T10:11:29;6.13;;;3.60;;
53036;SDS011;38924;52.134;4.666;2024-01-10T10:13:55;9.82;;;4.40;;
53036;SDS011;38924;52.134;4.666;2024-01-10T10:16:24;5.60;;;3.42;;
53036;SDS011;38924;52.134;4.666;2024-01-10T10:18:51;9.25;;;4.38;;
53036;SDS011;38924;52.134;4.666;2024-01-10T10:21:18;7.30;;;4.13;;
53036;SDS011;38924;52.134;4.666;2024-01-10T10:23:57;8.65;;;5.70;;
53036;SDS011;38924;52.134;4.666;2024-01-10T10:26:22;6.70;;;3.22;;
53036;SDS011;38924;52.134;4.666;2024-01-10T10:28:49;9.60;;;3.72;;
53036;SDS011;38924;52.134;4.666;2024-01-10T10:31:16;9.65;;;4.00;;
53036;SDS011;38924;52.134;4.666;2024-01-10T10:33:42;7.95;;;4.25;;
53036;SDS011;38924;52.134;4.666;2024-01-10T10:36:08;8.52;;;4.05;;
53036;SDS011;38924;52.134;4.666;2024-01-10T10:38:35;7.15;;;4.30;;
53036;SDS011;38924;52.134;4.666;2024-01-10T10:41:02;6.28;;;4.30;;
53036;SDS011;38924;52.134;4.666;2024-01-10T10:43:31;9.23;;;4.32;;
53036;SDS011;38924;52.134;4.666;2024-01-10T10:45:59;11.07;;;5.18;;
53036;SDS011;38924;52.134;4.666;2024-01-10T10:48:26;6.97;;;3.88;;
53036;SDS011;38924;52.134;4.666;2024-01-10T10:50:57;5.90;;;3.55;;
53036;SDS011;38924;52.134;4.666;2024-01-10T10:53:29;11.07;;;4.60;;
53036;SDS011;38924;52.134;4.666;2024-01-10T10:55:55;10.25;;;3.97;;
53036;SDS011;38924;52.134;4.666;2024-01-10T10:58:21;8.57;;;4.30;;
53036;SDS011;38924;52.134;4.666;2024-01-10T11:00:47;7.57;;;4.50;;
53036;SDS011;38924;52.134;4.666;2024-01-10T11:03:15;8.23;;;4.38;;
53036;SDS011;38924;52.134;4.666;2024-01-10T11:05:41;7.03;;;4.28;;
53036;SDS011;38924;52.134;4.666;2024-01-10T11:08:08;9.80;;;4.45;;
53036;SDS011;38924;52.134;4.666;2024-01-10T11:10:37;8.27;;;4.25;;
53036;SDS011;38924;52.134;4.666;2024-01-10T11:13:24;9.93;;;4.60;;
53036;SDS011;38924;52.134;4.666;2024-01-10T11:21:22;9.90;;;5.22;;
53036;SDS011;38924;52.134;4.666;2024-01-10T11:23:56;6.45;;;3.95;;
53036;SDS011;38924;52.134;4.666;2024-01-10T11:26:23;8.50;;;4.85;;
53036;SDS011;38924;52.134;4.666;2024-01-10T11:28:50;9.55;;;4.30;;
53036;SDS011;38924;52.134;4.666;2024-01-10T11:31:18;8.45;;;4.57;;
53036;SDS011;38924;52.134;4.666;2024-01-10T11:33:52;12.43;;;5.20;;
53036;SDS011;38924;52.134;4.666;2024-01-10T11:36:19;8.50;;;4.38;;
53036;SDS011;38924;52.134;4.666;2024-01-10T11:46:34;11.13;;;5.97;;
53036;SDS011;38924;52.134;4.666;2024-01-10T11:49:00;9.02;;;5.00;;
53036;SDS011;38924;52.134;4.666;2024-01-10T11:51:26;8.30;;;4.63;;
53036;SDS011;38924;52.134;4.666;2024-01-10T11:53:51;10.23;;;5.43;;
53036;SDS011;38924;52.134;4.666;2024-01-10T11:56:18;9.25;;;4.75;;
53036;SDS011;38924;52.134;4.666;2024-01-10T12:01:19;8.10;;;5.35;;
53036;SDS011;38924;52.134;4.666;2024-01-10T12:03:46;8.25;;;4.25;;
53036;SDS011;38924;52.134;4.666;2024-01-10T12:06:12;7.85;;;4.68;;
53036;SDS011;38924;52.134;4.666;2024-01-10T12:08:39;10.10;;;5.53;;
53036;SDS011;38924;52.134;4.666;2024-01-10T12:11:05;6.70;;;3.95;;
53036;SDS011;38924;52.134;4.666;2024-01-10T12:13:30;8.70;;;4.65;;
53036;SDS011;38924;52.134;4.666;2024-01-10T12:15:57;8.00;;;4.45;;
53036;SDS011;38924;52.134;4.666;2024-01-10T12:18:23;7.78;;;4.78;;
53036;SDS011;38924;52.134;4.666;2024-01-10T12:20:49;7.60;;;4.53;;
53036;SDS011;38924;52.134;4.666;2024-01-10T12:23:15;7.75;;;4.97;;
53036;SDS011;38924;52.134;4.666;2024-01-10T12:25:40;8.43;;;4.72;;
53036;SDS011;38924;52.134;4.666;2024-01-10T12:28:06;6.68;;;4.45;;
53036;SDS011;38924;52.134;4.666;2024-01-10T12:30:32;8.82;;;5.80;;
53036;SDS011;38924;52.134;4.666;2024-01-10T12:33:01;8.25;;;4.97;;
53036;SDS011;38924;52.134;4.666;2024-01-10T12:35:29;9.00;;;5.22;;
53036;SDS011;38924;52.134;4.666;2024-01-10T12:37:55;8.60;;;4.57;;
53036;SDS011;38924;52.134;4.666;2024-01-10T12:40:21;9.73;;;4.78;;
53036;SDS011;38924;52.134;4.666;2024-01-10T12:42:47;10.98;;;4.78;;
53036;SDS011;38924;52.134;4.666;2024-01-10T12:45:22;6.70;;;4.20;;
53036;SDS011;38924;52.134;4.666;2024-01-10T12:47:48;8.85;;;5.20;;
53036;SDS011;38924;52.134;4.666;2024-01-10T12:50:13;11.23;;;5.15;;
53036;SDS011;38924;52.134;4.666;2024-01-10T12:52:44;8.05;;;5.05;;
53036;SDS011;38924;52.134;4.666;2024-01-10T12:55:10;8.52;;;5.78;;
53036;SDS011;38924;52.134;4.666;2024-01-10T12:57:36;9.10;;;5.43;;
53036;SDS011;38924;52.134;4.666;2024-01-10T13:00:02;8.43;;;5.63;;
53036;SDS011;38924;52.134;4.666;2024-01-10T13:02:34;10.23;;;5.53;;
53036;SDS011;38924;52.134;4.666;2024-01-10T13:05:05;7.45;;;4.80;;
53036;SDS011;38924;52.134;4.666;2024-01-10T13:07:37;9.32;;;5.05;;
53036;SDS011;38924;52.134;4.666;2024-01-10T13:10:03;9.15;;;5.40;;
53036;SDS011;38924;52.134;4.666;2024-01-10T13:12:28;10.20;;;4.90;;
53036;SDS011;38924;52.134;4.666;2024-01-10T13:14:54;6.80;;;4.57;;
53036;SDS011;38924;52.134;4.666;2024-01-10T13:17:21;10.30;;;5.35;;
53036;SDS011;38924;52.134;4.666;2024-01-10T13:19:47;11.68;;;5.20;;
53036;SDS011;38924;52.134;4.666;2024-01-10T13:22:14;9.38;;;5.80;;
53036;SDS011;38924;52.134;4.666;2024-01-10T13:24:47;8.52;;;6.07;;
53036;SDS011;38924;52.134;4.666;2024-01-10T13:27:13;9.55;;;5.35;;
53036;SDS011;38924;52.134;4.666;2024-01-10T13:29:38;9.77;;;5.60;;
53036;SDS011;38924;52.134;4.666;2024-01-10T13:32:04;9.65;;;5.32;;
53036;SDS011;38924;52.134;4.666;2024-01-10T13:34:31;12.20;;;5.95;;
53036;SDS011;38924;52.134;4.666;2024-01-10T13:36:57;15.82;;;9.25;;
53036;SDS011;38924;52.134;4.666;2024-01-10T13:39:23;10.02;;;5.53;;
53036;SDS011;38924;52.134;4.666;2024-01-10T13:41:49;12.52;;;6.72;;
53036;SDS011;38924;52.134;4.666;2024-01-10T13:44:14;9.30;;;5.60;;
53036;SDS011;38924;52.134;4.666;2024-01-10T13:46:40;11.38;;;5.53;;
53036;SDS011;38924;52.134;4.666;2024-01-10T13:49:06;11.45;;;5.63;;
53036;SDS011;38924;52.134;4.666;2024-01-10T13:51:32;9.02;;;5.03;;
53036;SDS011;38924;52.134;4.666;2024-01-10T13:53:58;11.85;;;5.55;;
53036;SDS011;38924;52.134;4.666;2024-01-10T13:56:24;8.07;;;4.85;;
53036;SDS011;38924;52.134;4.666;2024-01-10T13:58:50;10.90;;;5.97;;
53036;SDS011;38924;52.134;4.666;2024-01-10T14:01:15;11.35;;;6.50;;
53036;SDS011;38924;52.134;4.666;2024-01-10T14:03:41;9.90;;;5.60;;
53036;SDS011;38924;52.134;4.666;2024-01-10T14:06:07;10.27;;;5.70;;
53036;SDS011;38924;52.134;4.666;2024-01-10T14:08:32;9.68;;;5.82;;
53036;SDS011;38924;52.134;4.666;2024-01-10T14:10:59;14.48;;;6.38;;
53036;SDS011;38924;52.134;4.666;2024-01-10T14:13:25;9.85;;;4.85;;
53036;SDS011;38924;52.134;4.666;2024-01-10T14:15:50;8.82;;;4.97;;
53036;SDS011;38924;52.134;4.666;2024-01-10T14:18:16;10.10;;;5.53;;
53036;SDS011;38924;52.134;4.666;2024-01-10T14:20:42;10.73;;;5.45;;
53036;SDS011;38924;52.134;4.666;2024-01-10T14:23:07;10.05;;;5.55;;
53036;SDS011;38924;52.134;4.666;2024-01-10T14:25:33;10.43;;;5.38;;
53036;SDS011;38924;52.134;4.666;2024-01-10T14:27:59;10.40;;;5.20;;
53036;SDS011;38924;52.134;4.666;2024-01-10T14:30:26;8.73;;;5.18;;
53036;SDS011;38924;52.134;4.666;2024-01-10T14:32:52;8.18;;;5.00;;
53036;SDS011;38924;52.134;4.666;2024-01-10T14:35:18;10.38;;;5.30;;
53036;SDS011;38924;52.134;4.666;2024-01-10T14:37:44;11.75;;;5.70;;
53036;SDS011;38924;52.134;4.666;2024-01-10T14:40:10;9.50;;;5.50;;
53036;SDS011;38924;52.134;4.666;2024-01-10T14:42:36;8.60;;;5.00;;
53036;SDS011;38924;52.134;4.666;2024-01-10T14:45:02;10.05;;;5.10;;
53036;SDS011;38924;52.134;4.666;2024-01-10T14:47:29;11.80;;;5.47;;
53036;SDS011;38924;52.134;4.666;2024-01-10T14:49:55;9.32;;;5.38;;
53036;SDS011;38924;52.134;4.666;2024-01-10T14:52:24;10.85;;;5.47;;
53036;SDS011;38924;52.134;4.666;2024-01-10T14:54:51;12.60;;;7.88;;